Time;durP1;ratioP1;P1;durP2;ratioP2;P2;SDS_P1;SDS_P2;PMS_P1;PMS_P2;Temp;Humidity;BMP_temperature;BMP_pressure;BME280_temperature;BME280_humidity;BME280_pressure;Samples;Min_cycle;Max_cycle;Signal;HPM_P1;HPM_P2
2022/07/12 00:05:07;;;;;;;6.32;4.35;;;12.30;99.90;;;;;;10108683;29;20040;-93
2022/07/12 00:11:36;;;;;;;7.72;4.25;;;12.30;99.90;;;;;;10125305;29;20044;-93
2022/07/12 00:16:40;;;;;;;6.55;4.38;;;12.30;99.90;;;;;;10004116;29;20054;-93
2022/07/12 00:22:18;;;;;;;6.00;3.83;;;12.30;99.90;;;;;;10028885;29;20405;-94
2022/07/12 00:27:19;;;;;;;6.10;3.88;;;12.30;99.90;;;;;;10100454;29;20052;-93
2022/07/12 00:44:30;;;;;;;11.63;4.82;;;12.40;99.90;;;;;;9932242;29;19925;-94
2022/07/12 00:49:45;;;;;;;8.10;5.05;;;12.40;99.90;;;;;;9919075;29;20046;-92
2022/07/12 01:06:55;;;;;;;9.57;6.97;;;12.40;99.90;;;;;;9929016;29;20503;-93
2022/07/12 01:18:25;;;;;;;14.98;7.45;;;12.40;99.90;;;;;;9949258;29;20124;-94
2022/07/12 01:23:25;;;;;;;9.45;7.60;;;12.40;99.90;;;;;;10043345;29;20093;-93
2022/07/12 01:41:20;;;;;;;12.43;6.60;;;12.40;99.90;;;;;;10037221;29;20890;-91
2022/07/12 01:57:30;;;;;;;9.05;5.32;;;12.40;99.90;;;;;;10124899;29;20072;-91
2022/07/12 02:02:35;;;;;;;6.40;5.00;;;12.40;99.90;;;;;;10126423;29;20496;-92
2022/07/12 02:07:36;;;;;;;6.55;5.35;;;12.50;99.90;;;;;;10107850;29;20122;-92
2022/07/12 02:13:10;;;;;;;5.32;4.53;;;12.40;99.90;;;;;;10111629;29;20057;-90
2022/07/12 02:18:27;;;;;;;6.43;5.20;;;12.40;99.90;;;;;;10118233;29;20036;-93
2022/07/12 02:23:28;;;;;;;6.88;5.00;;;12.40;99.90;;;;;;10100151;29;20032;-91
2022/07/12 02:28:29;;;;;;;8.95;5.40;;;12.40;99.90;;;;;;10111086;29;20057;-92
2022/07/12 02:33:30;;;;;;;6.05;4.70;;;12.40;99.90;;;;;;10122347;29;20040;-91
2022/07/12 02:38:31;;;;;;;7.97;4.70;;;12.40;99.90;;;;;;10114300;29;20036;-91
2022/07/12 02:43:34;;;;;;;11.20;6.28;;;12.40;99.90;;;;;;10111179;29;20029;-93
2022/07/12 02:48:35;;;;;;;10.57;6.18;;;12.70;99.90;;;;;;10107771;29;20056;-92
2022/07/12 02:59:50;;;;;;;15.52;7.75;;;12.40;99.90;;;;;;10089423;29;20045;-89
2022/07/12 03:04:57;;;;;;;15.60;6.63;;;12.30;99.90;;;;;;10083995;29;20454;-92
2022/07/12 03:10:01;;;;;;;16.13;7.82;;;12.20;99.90;;;;;;10152310;23;20060;-93
2022/07/12 03:15:02;;;;;;;22.30;8.07;;;12.20;99.90;;;;;;10116517;29;20061;-88
2022/07/12 03:20:06;;;;;;;21.83;8.63;;;12.20;99.90;;;;;;10125629;29;20040;-90
2022/07/12 03:37:47;;;;;;;10.90;4.70;;;12.20;99.90;;;;;;10153465;29;20066;-94
2022/07/12 03:43:08;;;;;;;7.43;4.97;;;12.20;99.90;;;;;;10136673;29;20048;-95
2022/07/12 03:48:09;;;;;;;8.43;4.47;;;12.20;99.90;;;;;;10118516;29;20049;-88
2022/07/12 03:53:49;;;;;;;8.50;4.97;;;12.20;99.90;;;;;;10122278;29;20044;-93
2022/07/12 04:23:29;;;;;;;12.52;6.57;;;12.40;99.90;;;;;;10092780;29;20589;-91
2022/07/12 04:28:51;;;;;;;10.35;6.93;;;12.30;99.90;;;;;;10121235;29;20134;-93
2022/07/12 04:34:29;;;;;;;;;;;;;;;;;;;;;
2022/07/12 04:39:30;;;;;;;11.25;8.38;;;12.40;99.90;;;;;;10114250;29;20446;-92
2022/07/12 04:44:33;;;;;;;13.32;9.15;;;12.40;99.90;;;;;;10130203;29;20028;-91
2022/07/12 04:49:34;;;;;;;12.88;9.40;;;12.50;99.90;;;;;;10121603;29;20041;-90
2022/07/12 04:54:35;;;;;;;9.57;7.93;;;12.70;99.90;;;;;;10111290;29;20029;-91
2022/07/12 04:59:36;;;;;;;13.65;8.63;;;12.70;99.90;;;;;;10137504;29;20623;-92
2022/07/12 05:04:38;;;;;;;11.20;8.10;;;12.80;99.90;;;;;;10150701;29;20080;-93
2022/07/12 05:09:38;;;;;;;13.38;8.68;;;12.80;99.90;;;;;;10128692;29;20048;-91
2022/07/12 05:14:39;;;;;;;10.98;7.80;;;12.90;99.90;;;;;;10118116;29;20028;-93
2022/07/12 05:19:40;;;;;;;13.38;8.10;;;13.10;99.90;;;;;;10106573;29;20091;-90
2022/07/12 05:24:53;;;;;;;10.15;7.50;;;13.10;99.90;;;;;;10124762;29;20651;-91
2022/07/12 05:30:25;;;;;;;12.10;8.27;;;13.10;99.90;;;;;;10136914;29;20095;-91
2022/07/12 05:35:38;;;;;;;10.50;8.85;;;13.20;99.90;;;;;;10104724;29;20079;-92
2022/07/12 05:40:51;;;;;;;10.02;7.75;;;13.20;99.90;;;;;;10112283;29;20041;-92
2022/07/12 05:46:24;;;;;;;12.95;8.13;;;13.20;99.90;;;;;;10118242;29;20041;-91
2022/07/12 05:56:45;;;;;;;8.43;6.07;;;13.60;99.90;;;;;;10138897;29;20048;-92
2022/07/12 06:02:06;;;;;;;9.07;6.65;;;13.90;99.90;;;;;;10120834;29;20032;-94
2022/07/12 06:07:13;;;;;;;7.57;5.63;;;14.00;99.90;;;;;;10121548;29;20053;-92
2022/07/12 06:12:20;;;;;;;6.35;4.68;;;14.20;99.90;;;;;;10141167;29;20121;-92
2022/07/12 06:17:32;;;;;;;;;;;;;;;;;;;;;
2022/07/12 06:22:33;;;;;;;7.15;3.95;;;14.30;99.90;;;;;;10139682;29;20503;-91
2022/07/12 06:28:10;;;;;;;5.30;3.80;;;14.40;99.90;;;;;;10133408;29;20037;-92
2022/07/12 06:33:11;;;;;;;6.90;4.63;;;14.60;99.90;;;;;;10132099;29;20554;-93
2022/07/12 06:38:14;;;;;;;9.43;6.40;;;14.80;99.90;;;;;;10128551;29;20512;-88
2022/07/12 06:43:18;;;;;;;8.73;6.38;;;15.00;99.90;;;;;;10130206;29;20024;-91
2022/07/12 06:48:19;;;;;;;6.32;5.72;;;15.10;99.90;;;;;;10124752;29;20041;-89
2022/07/12 06:53:20;;;;;;;5.80;3.88;;;15.30;99.90;;;;;;10111715;29;20040;-90
2022/07/12 07:04:22;;;;;;;4.35;1.50;;;17.10;99.90;;;;;;10704490;23;20028;-89
2022/07/12 07:26:33;;;;;;;3.22;0.88;;;19.50;99.90;;;;;;12038749;23;20088;-90
2022/07/12 07:31:35;;;;;;;1.73;0.68;;;19.80;99.90;;;;;;10091524;29;20040;-90
2022/07/12 07:36:36;;;;;;;0.70;0.70;;;19.20;99.90;;;;;;10108297;29;21260;-93
2022/07/12 07:41:39;;;;;;;1.95;1.15;;;18.60;99.90;;;;;;10110191;29;20024;-92
2022/07/12 07:46:40;;;;;;;1.52;0.90;;;18.20;99.90;;;;;;10103810;29;20045;-91
2022/07/12 07:51:41;;;;;;;0.90;0.88;;;18.10;99.90;;;;;;10105787;29;20032;-90
2022/07/12 07:56:42;;;;;;;1.40;1.10;;;18.40;99.90;;;;;;10109237;29;20084;-88
2022/07/12 08:01:44;;;;;;;1.63;1.00;;;17.90;99.90;;;;;;10109647;29;20052;-88
2022/07/12 08:06:46;;;;;;;2.25;1.13;;;17.80;99.90;;;;;;10111928;29;20438;-89
2022/07/12 08:11:47;;;;;;;4.18;1.25;;;17.70;99.90;;;;;;10114157;29;20123;-91
2022/07/12 08:16:48;;;;;;;2.00;1.38;;;17.10;99.90;;;;;;10089173;29;20576;-89
2022/07/12 08:21:48;;;;;;;3.03;1.70;;;16.40;99.90;;;;;;10076507;29;20386;-89
2022/07/12 08:26:50;;;;;;;7.05;2.53;;;15.70;99.90;;;;;;10083757;29;20048;-89
2022/07/12 08:31:56;;;;;;;4.70;2.88;;;14.90;99.90;;;;;;10098533;29;20080;-93
2022/07/12 08:37:03;;;;;;;3.53;2.88;;;14.60;99.90;;;;;;10091073;29;20488;-93
2022/07/12 08:42:06;;;;;;;4.55;2.50;;;14.80;99.90;;;;;;10087618;29;20527;-91
2022/07/12 08:47:20;;;;;;;5.05;2.53;;;15.00;99.90;;;;;;10096547;29;20037;-92
2022/07/12 08:52:26;;;;;;;4.88;2.42;;;15.50;99.90;;;;;;10073603;29;20548;-92
2022/07/12 08:57:31;;;;;;;4.97;1.55;;;16.20;99.90;;;;;;10100438;29;20059;-92
2022/07/12 09:02:47;;;;;;;5.13;2.07;;;16.30;99.90;;;;;;10098480;29;20044;-90
2022/07/12 09:07:48;;;;;;;3.83;2.25;;;16.20;99.90;;;;;;10088269;29;20314;-93
2022/07/12 09:12:49;;;;;;;4.22;2.13;;;16.00;99.90;;;;;;10104143;29;20032;-89
2022/07/12 09:18:01;;;;;;;5.90;2.55;;;15.80;99.90;;;;;;10089556;29;20036;-89
2022/07/12 09:23:10;;;;;;;6.68;3.08;;;15.50;99.90;;;;;;10088254;29;20480;-89
2022/07/12 09:28:11;;;;;;;6.93;3.50;;;15.10;99.90;;;;;;10074377;29;20164;-89
2022/07/12 09:38:31;;;;;;;6.65;2.38;;;15.50;99.90;;;;;;10100534;29;20725;-90
2022/07/12 09:43:32;;;;;;;3.83;2.85;;;16.00;99.90;;;;;;10090627;29;20033;-90
2022/07/12 09:48:33;;;;;;;5.85;3.05;;;16.40;99.90;;;;;;10100709;29;20175;-87
2022/07/12 09:53:48;;;;;;;6.18;2.50;;;15.90;99.90;;;;;;10095317;29;21117;-88
2022/07/12 09:58:53;;;;;;;11.03;4.27;;;15.20;99.90;;;;;;10082780;29;20123;-89
2022/07/12 10:03:56;;;;;;;5.38;3.88;;;15.60;99.90;;;;;;10084186;29;20116;-89
2022/07/12 10:08:57;;;;;;;5.60;2.60;;;16.30;99.90;;;;;;10104134;29;20088;-89
2022/07/12 10:13:58;;;;;;;3.13;1.88;;;17.10;99.90;;;;;;10089826;29;20071;-88
2022/07/12 10:19:29;;;;;;;4.05;1.70;;;17.70;99.90;;;;;;10093501;29;20028;-88
2022/07/12 10:24:33;;;;;;;4.95;1.70;;;17.90;99.90;;;;;;10089690;29;20029;-89
2022/07/12 10:29:37;;;;;;;2.08;1.10;;;18.10;99.90;;;;;;10096645;29;20060;-92
2022/07/12 10:34:38;;;;;;;2.47;1.30;;;18.20;99.90;;;;;;10098164;29;20041;-91
2022/07/12 10:39:40;;;;;;;2.88;1.67;;;18.10;99.90;;;;;;10092571;29;20157;-90
2022/07/12 10:44:44;;;;;;;2.80;1.27;;;18.30;99.90;;;;;;10106958;29;20025;-87
2022/07/12 10:49:49;;;;;;;5.07;1.83;;;18.60;99.90;;;;;;10093824;29;20041;-89
2022/07/12 10:54:50;;;;;;;;;;;18.80;99.90;;;;;;10090672;29;20032;-89
2022/07/12 10:59:54;;;;;;;3.72;1.17;;;19.40;99.90;;;;;;10108841;29;20408;-89
2022/07/12 11:04:54;;;;;;;2.20;1.10;;;18.90;99.90;;;;;;10083306;29;20057;-91
2022/07/12 11:09:55;;;;;;;1.85;1.20;;;18.10;99.90;;;;;;10094317;29;20075;-90
2022/07/12 11:14:59;;;;;;;3.20;1.33;;;17.70;99.90;;;;;;10090767;29;20514;-90
2022/07/12 11:20:13;;;;;;;2.35;1.30;;;18.10;99.90;;;;;;10085539;29;20033;-90
2022/07/12 11:25:14;;;;;;;2.28;0.80;;;18.20;99.90;;;;;;10083136;29;20385;-88
2022/07/12 11:30:16;;;;;;;2.90;1.15;;;18.70;99.90;;;;;;10089630;29;20112;-89
2022/07/12 11:35:18;;;;;;;3.00;0.95;;;19.10;99.90;;;;;;10087632;29;20496;-88
2022/07/12 11:40:30;;;;;;;2.08;0.75;;;19.40;99.90;;;;;;10081735;29;20037;-91
2022/07/12 11:45:34;;;;;;;1.50;0.70;;;19.50;99.90;;;;;;10084488;29;20032;-91
2022/07/12 11:50:34;;;;;;;1.40;0.50;;;19.70;99.90;;;;;;10091223;29;20044;-90
2022/07/12 11:55:43;;;;;;;0.80;0.75;;;19.90;99.90;;;;;;10106660;29;20033;-89
2022/07/12 12:00:48;;;;;;;1.33;0.90;;;20.40;99.90;;;;;;10101030;29;20082;-92
2022/07/12 12:05:54;;;;;;;1.80;0.80;;;20.50;99.90;;;;;;10081294;29;20124;-90
2022/07/12 12:11:04;;;;;;;1.88;0.60;;;19.90;99.90;;;;;;10090099;29;20071;-89
2022/07/12 12:16:05;;;;;;;1.15;0.60;;;19.40;99.90;;;;;;10101181;29;20072;-87
2022/07/12 12:21:10;;;;;;;2.30;0.98;;;19.20;99.90;;;;;;10088629;29;20132;-90
2022/07/12 12:26:22;;;;;;;1.90;1.00;;;18.70;99.90;;;;;;10112297;29;20156;-91
2022/07/12 12:31:23;;;;;;;1.60;1.10;;;17.70;99.90;;;;;;10099548;29;20028;-87
2022/07/12 12:36:27;;;;;;;3.80;0.90;;;17.20;99.90;;;;;;10079602;29;20476;-92
2022/07/12 12:41:29;;;;;;;0.60;0.60;;;17.30;99.90;;;;;;10080291;29;20410;-90
2022/07/12 12:46:55;;;;;;;3.42;0.90;;;17.80;99.90;;;;;;10097198;29;20044;-91
2022/07/12 12:51:58;;;;;;;4.00;1.30;;;18.50;99.90;;;;;;10080510;29;20861;-89
2022/07/12 12:56:59;;;;;;;1.92;1.50;;;19.00;99.90;;;;;;10080589;29;20072;-89
2022/07/12 13:02:00;;;;;;;0.98;0.65;;;19.40;99.90;;;;;;10095528;29;20147;-88
2022/07/12 13:07:02;;;;;;;1.75;0.73;;;19.70;99.90;;;;;;10088797;29;20025;-88
2022/07/12 13:12:04;;;;;;;1.35;0.52;;;19.80;99.90;;;;;;10090155;29;20036;-88
2022/07/12 13:17:04;;;;;;;0.80;0.60;;;20.00;99.90;;;;;;10073249;29;20025;-89
2022/07/12 13:22:06;;;;;;;2.90;1.10;;;20.00;99.90;;;;;;10078189;29;20037;-92
2022/07/12 13:27:06;;;;;;;4.90;1.38;;;19.60;99.90;;;;;;10088806;29;20064;-89
2022/07/12 13:32:07;;;;;;;1.75;0.88;;;19.60;99.90;;;;;;10092403;29;20021;-88
2022/07/12 13:37:07;;;;;;;1.70;0.90;;;19.90;99.90;;;;;;10076512;29;20527;-89
2022/07/12 13:42:08;;;;;;;2.65;1.35;;;20.20;99.90;;;;;;10082201;29;20040;-87
2022/07/12 13:47:09;;;;;;;3.10;1.20;;;20.30;99.90;;;;;;10096183;29;20369;-89
2022/07/12 13:52:09;;;;;;;2.92;1.13;;;20.40;99.90;;;;;;10072226;29;20504;-88
2022/07/12 13:57:11;;;;;;;1.80;0.80;;;20.50;99.90;;;;;;10090544;29;20033;-90
2022/07/12 14:02:12;;;;;;;0.88;0.80;;;20.40;99.90;;;;;;10082484;29;20033;-86
2022/07/12 14:07:13;;;;;;;1.98;1.08;;;20.50;99.90;;;;;;10074400;29;20045;-87
2022/07/12 14:12:14;;;;;;;1.45;0.75;;;20.40;99.90;;;;;;10102180;29;20044;-91
2022/07/12 14:17:15;;;;;;;3.50;1.00;;;20.50;99.90;;;;;;10084639;29;20247;-89
2022/07/12 14:22:16;;;;;;;3.30;1.00;;;20.70;99.90;;;;;;10083981;29;20029;-88
2022/07/12 14:27:16;;;;;;;1.08;0.85;;;20.80;99.90;;;;;;10096006;29;20143;-87
2022/07/12 14:32:17;;;;;;;3.70;0.90;;;20.90;99.90;;;;;;10094927;29;20123;-88
2022/07/12 14:37:18;;;;;;;1.00;0.68;;;20.70;99.90;;;;;;10085947;29;20148;-87
2022/07/12 14:42:19;;;;;;;3.80;1.10;;;20.90;99.90;;;;;;10085051;29;20029;-89
2022/07/12 14:47:21;;;;;;;0.95;0.70;;;21.10;99.90;;;;;;10112636;29;20052;-90
2022/07/12 14:52:22;;;;;;;2.60;0.80;;;21.10;99.90;;;;;;10094427;29;20104;-86
2022/07/12 14:57:23;;;;;;;1.00;0.90;;;20.80;99.90;;;;;;10111266;29;20036;-89
2022/07/12 15:02:23;;;;;;;2.95;0.75;;;20.40;99.90;;;;;;10095337;29;20045;-88
2022/07/12 15:07:24;;;;;;;2.55;1.48;;;19.90;99.90;;;;;;10094371;29;20048;-90
2022/07/12 15:12:25;;;;;;;1.13;0.90;;;19.50;99.90;;;;;;10106334;29;20064;-90
2022/07/12 15:17:26;;;;;;;0.80;0.80;;;19.10;99.90;;;;;;10094729;29;20041;-89
2022/07/12 15:22:29;;;;;;;1.25;0.70;;;19.10;99.90;;;;;;10096978;29;20024;-90
2022/07/12 15:27:36;;;;;;;2.42;0.90;;;19.30;99.90;;;;;;10095204;29;20135;-89
2022/07/12 15:33:00;;;;;;;0.95;0.73;;;19.60;99.90;;;;;;10101990;29;20036;-92
2022/07/12 15:38:01;;;;;;;1.42;0.90;;;19.50;99.90;;;;;;10088684;29;20058;-90
2022/07/12 15:43:05;;;;;;;0.60;0.60;;;19.60;99.90;;;;;;10090193;29;20025;-88
2022/07/12 15:48:05;;;;;;;3.42;0.80;;;19.60;99.90;;;;;;10110367;29;20063;-88
2022/07/12 15:58:27;;;;;;;1.40;0.77;;;19.50;99.90;;;;;;10116918;29;20052;-88
2022/07/12 16:03:28;;;;;;;1.83;0.70;;;19.60;99.90;;;;;;10093484;29;20068;-89
2022/07/12 16:08:30;;;;;;;3.42;0.85;;;19.80;99.90;;;;;;10112629;29;20045;-89
2022/07/12 16:13:32;;;;;;;2.00;0.80;;;20.10;99.90;;;;;;10109059;29;20024;-87
2022/07/12 16:18:33;;;;;;;1.92;1.00;;;20.20;99.90;;;;;;10092223;29;20124;-90
2022/07/12 16:23:34;;;;;;;1.35;0.80;;;20.40;99.90;;;;;;10110487;29;20163;-88
2022/07/12 16:28:35;;;;;;;1.63;1.02;;;20.50;99.90;;;;;;10099888;29;20120;-89
2022/07/12 16:33:35;;;;;;;2.50;0.80;;;20.20;99.90;;;;;;10094217;29;20385;-90
2022/07/12 16:38:36;;;;;;;2.63;1.27;;;20.20;99.90;;;;;;10088623;29;20037;-90
2022/07/12 16:44:16;;;;;;;2.25;1.20;;;20.30;99.90;;;;;;10079611;29;20116;-86
2022/07/12 16:49:52;;;;;;;1.60;0.90;;;20.50;99.90;;;;;;10076122;29;20045;-88
2022/07/12 16:54:53;;;;;;;;;;;20.80;99.90;;;;;;10092067;29;20651;-87
2022/07/12 16:59:53;;;;;;;1.92;0.68;;;20.90;99.90;;;;;;10087140;29;19998;-87
2022/07/12 17:05:21;;;;;;;1.80;0.68;;;20.80;99.90;;;;;;10098304;29;20044;-89
2022/07/12 17:10:22;;;;;;;0.93;0.50;;;20.60;99.90;;;;;;10094305;29;20052;-86
2022/07/12 17:15:23;;;;;;;1.73;0.60;;;20.40;99.90;;;;;;10086413;29;20036;-84
2022/07/12 17:20:23;;;;;;;0.57;0.50;;;20.40;99.90;;;;;;10101385;29;20040;-86
2022/07/12 17:25:24;;;;;;;1.85;0.98;;;20.50;99.90;;;;;;10099277;29;20037;-89
2022/07/12 17:30:25;;;;;;;9.60;0.95;;;20.50;99.90;;;;;;10089474;29;20063;-89
2022/07/12 17:35:26;;;;;;;0.82;0.70;;;20.50;99.90;;;;;;10106193;29;20796;-84
2022/07/12 17:40:26;;;;;;;3.25;1.50;;;20.60;99.90;;;;;;10085861;29;20041;-87
2022/07/12 17:45:28;;;;;;;3.85;1.20;;;20.60;99.90;;;;;;10099056;29;20100;-91
2022/07/12 17:50:29;;;;;;;1.92;1.40;;;20.60;99.90;;;;;;10091178;29;20060;-88
2022/07/12 17:55:30;;;;;;;2.58;1.52;;;20.50;99.90;;;;;;10101417;29;20021;-86
2022/07/12 18:00:32;;;;;;;2.42;1.40;;;20.30;99.90;;;;;;10089816;29;20048;-89
2022/07/12 18:05:32;;;;;;;3.13;1.23;;;20.20;99.90;;;;;;10085979;29;20040;-86
2022/07/12 18:10:33;;;;;;;2.20;1.05;;;20.20;99.90;;;;;;10089811;29;20049;-89
2022/07/12 18:15:33;;;;;;;2.15;1.05;;;20.10;99.90;;;;;;10101628;29;20048;-88
2022/07/12 18:20:37;;;;;;;2.42;1.15;;;20.10;99.90;;;;;;10091772;29;20485;-88
2022/07/12 18:25:37;;;;;;;1.20;0.90;;;20.10;99.90;;;;;;10080759;29;20033;-88
2022/07/12 18:36:35;;;;;;;3.03;0.80;;;20.00;99.90;;;;;;10107168;29;20060;-88
2022/07/12 18:41:36;;;;;;;1.80;0.75;;;19.80;99.90;;;;;;10093293;29;20127;-90
2022/07/12 18:46:44;;;;;;;2.08;0.93;;;19.70;99.90;;;;;;10088936;29;20041;-87
2022/07/12 18:51:45;;;;;;;1.35;0.80;;;19.60;99.90;;;;;;10091877;29;20095;-86
2022/07/12 18:56:45;;;;;;;1.45;0.95;;;19.40;99.80;;;;;;10092696;29;20547;-86
2022/07/12 19:01:46;;;;;;;1.13;0.70;;;19.30;99.90;;;;;;10103177;29;20163;-87
2022/07/12 19:06:47;;;;;;;1.38;0.80;;;19.20;98.80;;;;;;10092399;29;20048;-89
2022/07/12 19:11:50;;;;;;;1.23;0.85;;;19.20;98.60;;;;;;10107869;29;20040;-89
2022/07/12 19:16:51;;;;;;;1.77;0.70;;;19.10;99.10;;;;;;10108220;29;20037;-85
2022/07/12 19:21:52;;;;;;;4.30;1.20;;;19.00;98.00;;;;;;10097597;29;20040;-90
2022/07/12 19:26:53;;;;;;;2.75;0.80;;;18.90;98.50;;;;;;10084833;29;20394;-88
2022/07/12 19:31:54;;;;;;;2.75;1.30;;;18.80;98.50;;;;;;10094667;29;20060;-87
2022/07/12 19:36:56;;;;;;;1.38;1.10;;;18.70;99.50;;;;;;10092378;29;20045;-85
2022/07/12 19:41:58;;;;;;;1.42;1.00;;;18.60;99.90;;;;;;10109306;29;20040;-88
2022/07/12 19:46:58;;;;;;;1.52;1.17;;;18.50;99.90;;;;;;10106409;29;20080;-87
2022/07/12 19:51:59;;;;;;;2.17;0.90;;;18.40;99.90;;;;;;10082140;29;20515;-88
2022/07/12 19:56:59;;;;;;;2.50;1.30;;;18.20;99.90;;;;;;10089578;29;20036;-89
2022/07/12 20:02:01;;;;;;;1.75;1.00;;;18.10;99.90;;;;;;10088978;29;20055;-89
2022/07/12 20:07:02;;;;;;;2.78;1.20;;;17.90;99.90;;;;;;10085054;29;20045;-88
2022/07/12 20:12:03;;;;;;;1.05;0.95;;;17.90;99.90;;;;;;10085390;29;20101;-88
2022/07/12 20:17:06;;;;;;;3.15;1.73;;;17.80;99.90;;;;;;10088816;29;20037;-88
2022/07/12 20:22:09;;;;;;;3.35;1.67;;;17.70;99.90;;;;;;10086046;29;20028;-89
2022/07/12 20:27:10;;;;;;;2.30;1.48;;;17.70;99.90;;;;;;10113440;29;20108;-89
2022/07/12 20:32:11;;;;;;;2.65;1.35;;;17.60;99.90;;;;;;10095361;29;20077;-89
2022/07/12 20:37:11;;;;;;;4.03;1.20;;;17.60;99.90;;;;;;10104863;29;20478;-90
2022/07/12 20:42:14;;;;;;;1.42;0.90;;;17.60;99.90;;;;;;10104331;29;20067;-89
2022/07/12 20:47:15;;;;;;;3.15;0.90;;;17.50;99.90;;;;;;10093249;29;20398;-90
2022/07/12 20:52:15;;;;;;;1.75;0.98;;;17.60;99.90;;;;;;10074888;29;20037;-90
2022/07/12 20:57:16;;;;;;;2.20;1.00;;;17.80;99.90;;;;;;10081174;29;20040;-90
2022/07/12 21:02:17;;;;;;;3.25;1.27;;;17.90;99.70;;;;;;10089455;29;20045;-91
2022/07/12 21:07:17;;;;;;;2.17;1.00;;;17.90;98.90;;;;;;10072812;29;20470;-89
2022/07/12 21:12:18;;;;;;;1.42;0.95;;;18.00;98.20;;;;;;10098277;29;20033;-90
2022/07/12 21:17:18;;;;;;;2.10;0.80;;;17.90;97.30;;;;;;10089748;29;20100;-89
2022/07/12 21:22:19;;;;;;;1.58;0.82;;;17.90;96.90;;;;;;10085095;29;20117;-91
2022/07/12 21:27:21;;;;;;;1.10;0.75;;;17.80;96.80;;;;;;10084015;29;20048;-90
2022/07/12 21:32:23;;;;;;;1.52;0.88;;;17.60;96.70;;;;;;10079600;29;20032;-88
2022/07/12 21:37:24;;;;;;;1.00;0.80;;;17.50;96.50;;;;;;10088577;29;20253;-88
2022/07/12 21:42:24;;;;;;;1.25;0.77;;;17.40;96.10;;;;;;10088408;29;20477;-89
2022/07/12 21:47:27;;;;;;;2.28;0.93;;;17.30;95.60;;;;;;10083060;29;20045;-91
2022/07/12 21:52:28;;;;;;;2.30;1.10;;;17.30;96.20;;;;;;10097342;29;20079;-91
2022/07/12 21:57:30;;;;;;;1.38;0.95;;;17.10;95.80;;;;;;10084032;29;20039;-89
2022/07/12 22:02:30;;;;;;;1.40;1.05;;;17.00;95.90;;;;;;10087097;29;20044;-88
2022/07/12 22:07:32;;;;;;;3.63;1.10;;;16.90;95.60;;;;;;10082018;29;20052;-90
2022/07/12 22:12:32;;;;;;;3.22;0.82;;;16.70;95.80;;;;;;10094447;29;20042;-91
2022/07/12 22:17:33;;;;;;;1.15;0.90;;;16.70;95.70;;;;;;10093009;29;20030;-90
2022/07/12 22:22:35;;;;;;;1.10;0.93;;;16.60;95.50;;;;;;10078547;29;20094;-89
2022/07/12 22:27:35;;;;;;;1.63;0.90;;;16.60;95.50;;;;;;10100576;29;20438;-89
2022/07/12 22:32:36;;;;;;;3.00;1.02;;;16.50;95.70;;;;;;10086259;29;20020;-89
2022/07/12 22:37:41;;;;;;;1.17;1.00;;;16.40;95.90;;;;;;10103592;29;20108;-90
2022/07/12 22:42:42;;;;;;;3.67;1.10;;;16.30;96.20;;;;;;10105866;29;20067;-87
2022/07/12 22:47:42;;;;;;;1.80;1.02;;;16.20;96.20;;;;;;10093623;29;20029;-90
2022/07/12 22:52:43;;;;;;;2.90;1.00;;;16.10;96.70;;;;;;10093087;29;20021;-89
2022/07/12 22:57:43;;;;;;;1.20;1.05;;;15.90;97.40;;;;;;10089300;29;20025;-91
2022/07/12 23:02:44;;;;;;;1.08;0.95;;;15.80;97.30;;;;;;10098988;29;20099;-89
2022/07/12 23:07:44;;;;;;;2.92;1.80;;;15.70;97.70;;;;;;10096264;29;20037;-89
2022/07/12 23:12:45;;;;;;;1.92;1.20;;;15.60;98.10;;;;;;10086144;29;20474;-87
2022/07/12 23:17:46;;;;;;;5.05;1.40;;;15.40;98.70;;;;;;10081817;29;20037;-88
2022/07/12 23:22:46;;;;;;;2.88;1.30;;;15.30;99.60;;;;;;10095677;29;20143;-88
2022/07/12 23:27:47;;;;;;;3.28;1.35;;;15.10;99.90;;;;;;10085456;29;20053;-88
2022/07/12 23:32:48;;;;;;;3.30;1.60;;;15.00;99.90;;;;;;10089755;29;20040;-89
2022/07/12 23:37:48;;;;;;;2.17;1.40;;;14.90;99.90;;;;;;10084399;29;20032;-88
2022/07/12 23:42:49;;;;;;;2.88;1.48;;;14.80;99.90;;;;;;10109060;29;20045;-87
2022/07/12 23:47:49;;;;;;;3.60;1.50;;;14.70;99.90;;;;;;10082215;29;20048;-88
2022/07/12 23:52:50;;;;;;;3.35;1.40;;;14.60;99.90;;;;;;10078782;29;20382;-87
2022/07/12 23:57:51;;;;;;;5.47;1.80;;;14.50;99.90;;;;;;10078096;29;20694;-87
